Global Endeavor — 3EOJ9 — position and weather

sailwx.info

Track history (hours):
 
Tides and Currents Weather Stations Pressure Air Temp Water Temp Dewpoint Dewpoint Depression Visibility Wind Speed Wind Dir Waves Ship Positions

Global Endeavor

Last reported at 2016-Aug-17 12:33 UTC. Time now 2016-Aug-26 13:45 UTC.
Position N 34°57' E 140°12'.
Warning: this ship's position is 9 days out of date.

Length 175 m; draft 7.8 m.

Type: Cargo ship. MMSI: 356619000.

Date/timePositionNaut miles runAvg speedWind from/ knotsBaromVisibWave heightAir tempDewpointWater temp
2016-Aug-17 12:33N 34°57' E 140°12'1211.3
2016-Aug-17 11:31N 34°51' E 139°60'1110.0
2016-Aug-17 10:27N 34°50' E 139°47'11 8.5
2016-Aug-17 09:10N 34°60' E 139°41'710.8
2016-Aug-17 08:32N 35°06' E 139°44'9 9.3
2016-Aug-17 07:33N 35°15' E 139°46'10 9.6
2016-Aug-17 06:33N 35°24' E 139°43'4 3.7
2016-Aug-17 05:33N 35°28' E 139°42'0 0.0
2016-Aug-17 04:30N 35°28' E 139°42'0 0.0
2016-Aug-17 03:33N 35°28' E 139°42'0 0.0
2016-Aug-17 02:33N 35°28' E 139°42'0 0.0
2016-Aug-17 01:33N 35°28' E 139°42'0 0.0
2016-Aug-17 00:33N 35°28' E 139°42'0 0.0
2016-Aug-16 23:33N 35°28' E 139°42'0 0.0
2016-Aug-16 22:33N 35°28' E 139°42'0 0.0
2016-Aug-16 21:33N 35°28' E 139°42'0 0.0
2016-Aug-16 20:33N 35°28' E 139°42'0 0.0
2016-Aug-16 19:33N 35°28' E 139°42'0 0.0
2016-Aug-16 18:33N 35°28' E 139°42'0 0.0
2016-Aug-16 17:33N 35°28' E 139°42'0 0.0
2016-Aug-16 16:33N 35°28' E 139°42'0 0.0
2016-Aug-16 15:33N 35°28' E 139°42'0 0.0
2016-Aug-16 14:33N 35°28' E 139°42'0 0.0
2016-Aug-16 13:33N 35°28' E 139°42'0 0.0
2016-Aug-16 12:30N 35°28' E 139°42'0 0.0
2016-Aug-16 11:33N 35°28' E 139°42'0 0.0
2016-Aug-16 10:33N 35°28' E 139°42'0 0.0
2016-Aug-16 09:33N 35°28' E 139°42'0 0.0
2016-Aug-16 08:33N 35°28' E 139°42'0 0.0
2016-Aug-16 07:33N 35°28' E 139°42'0 0.0
2016-Aug-16 04:33N 35°28' E 139°42'0 0.0
2016-Aug-16 03:27N 35°28' E 139°42'0 0.0
2016-Aug-16 02:33N 35°28' E 139°42'0 0.0
2016-Aug-16 01:30N 35°28' E 139°42'0 0.0
2016-Aug-16 00:33N 35°28' E 139°42'0 0.0
2016-Aug-15 23:33N 35°28' E 139°42'0 0.0
2016-Aug-15 22:33N 35°28' E 139°42'0 0.0
2016-Aug-15 21:33N 35°28' E 139°42'0 0.0
2016-Aug-15 20:33N 35°28' E 139°42'0 0.0
2016-Aug-15 19:33N 35°28' E 139°42'0 0.0
2016-Aug-15 18:33N 35°28' E 139°42'0 0.0
2016-Aug-15 17:33N 35°28' E 139°42'0 0.0
2016-Aug-15 16:33N 35°28' E 139°42'0 0.0
2016-Aug-15 15:33N 35°28' E 139°42'0 0.0
2016-Aug-15 14:33N 35°28' E 139°42'0 0.0
2016-Aug-15 13:33N 35°28' E 139°42'0 0.0
2016-Aug-15 12:33N 35°28' E 139°42'0 0.0
2016-Aug-15 11:33N 35°28' E 139°42'0 0.0
2016-Aug-15 10:33N 35°28' E 139°42'0 0.0
2016-Aug-15 09:30N 35°28' E 139°42'0 0.0
2016-Aug-15 08:33N 35°28' E 139°42'0 0.0
2016-Aug-15 07:33N 35°28' E 139°42'0 0.0
2016-Aug-15 06:33N 35°28' E 139°42'0 0.0
2016-Aug-15 04:33N 35°28' E 139°42'0 0.0
2016-Aug-15 03:30N 35°28' E 139°42'0 0.0
2016-Aug-15 02:33N 35°28' E 139°42'0 0.0
2016-Aug-15 01:33N 35°28' E 139°42'0 0.0
2016-Aug-15 00:33N 35°28' E 139°42'0 0.0
2016-Aug-14 23:33N 35°28' E 139°42'0 0.0
2016-Aug-14 22:33N 35°28' E 139°42'2 1.8
2016-Aug-14 21:33N 35°27' E 139°43'1 0.6
2016-Aug-14 20:32N 35°27' E 139°44'0 0.1
2016-Aug-14 19:32N 35°27' E 139°44'0 0.0
2016-Aug-14 18:32N 35°27' E 139°44'0 0.0
2016-Aug-14 17:32N 35°27' E 139°44'0 0.1
2016-Aug-14 16:32N 35°27' E 139°44'0 0.1
2016-Aug-14 15:32N 35°27' E 139°44'0 0.0
2016-Aug-14 14:32N 35°27' E 139°44'0 0.0
2016-Aug-14 13:32N 35°27' E 139°44'0 0.1
2016-Aug-14 12:32N 35°27' E 139°44'0 0.1
2016-Aug-14 11:32N 35°27' E 139°44'0 0.0
2016-Aug-14 10:32N 35°27' E 139°44'0 0.2
2016-Aug-14 09:32N 35°26' E 139°44'0 0.1
2016-Aug-14 08:32N 35°26' E 139°44'0 0.0
2016-Aug-14 07:29N 35°26' E 139°44'0 0.1
2016-Aug-14 06:32N 35°26' E 139°44'0 0.1
2016-Aug-14 04:32N 35°27' E 139°44'0 0.0
2016-Aug-14 03:32N 35°27' E 139°44'0 0.1
2016-Aug-14 02:32N 35°27' E 139°44'0 0.1
2016-Aug-14 01:32N 35°26' E 139°44'0 0.0
2016-Aug-14 00:32N 35°26' E 139°44'0 0.1
2016-Aug-13 23:32N 35°26' E 139°44'0 0.1
2016-Aug-13 22:32N 35°26' E 139°44'3 2.8
2016-Aug-13 21:34N 35°25' E 139°47'5 4.7
2016-Aug-13 20:32N 35°22' E 139°51'0 0.0
2016-Aug-13 19:32N 35°22' E 139°51'0 0.0
2016-Aug-13 18:32N 35°22' E 139°51'0 0.0
2016-Aug-13 17:32N 35°22' E 139°51'0 0.0
2016-Aug-13 16:32N 35°22' E 139°51'0 0.0
2016-Aug-13 15:32N 35°22' E 139°51'0 0.0
2016-Aug-13 14:29N 35°22' E 139°51'0 0.0
2016-Aug-13 13:32N 35°22' E 139°51'0 0.0
2016-Aug-13 12:32N 35°22' E 139°51'0 0.0
2016-Aug-13 11:32N 35°22' E 139°51'0 0.0
2016-Aug-13 10:32N 35°22' E 139°51'0 0.0
2016-Aug-13 09:32N 35°22' E 139°51'0 0.0
2016-Aug-13 08:32N 35°22' E 139°51'0 0.0
2016-Aug-13 07:29N 35°22' E 139°51'0 0.0
2016-Aug-13 06:32N 35°22' E 139°51'0 0.0
2016-Aug-13 05:29N 35°22' E 139°51'0 0.0
2016-Aug-13 04:32N 35°22' E 139°51'0 0.0
2016-Aug-13 03:32N 35°22' E 139°51'0 0.0
2016-Aug-13 02:32N 35°22' E 139°51'0 0.0
2016-Aug-13 01:32N 35°22' E 139°51'0 0.0
2016-Aug-13 00:32N 35°22' E 139°51'0 0.0
2016-Aug-12 23:32N 35°22' E 139°51'0 0.0
2016-Aug-12 22:32N 35°22' E 139°51'0 0.0
2016-Aug-12 21:29N 35°22' E 139°51'0 0.0
2016-Aug-12 20:32N 35°22' E 139°51'0 0.0
2016-Aug-12 19:32N 35°22' E 139°51'0 0.0
2016-Aug-12 18:32N 35°22' E 139°51'0 0.0
2016-Aug-12 17:32N 35°22' E 139°51'0 0.0
2016-Aug-12 16:32N 35°22' E 139°51'0 0.0
2016-Aug-12 15:32N 35°22' E 139°51'0 0.0
2016-Aug-12 14:32N 35°22' E 139°51'0 0.0
2016-Aug-12 13:32N 35°22' E 139°51'0 0.0
2016-Aug-12 12:32N 35°22' E 139°51'0 0.0
2016-Aug-12 11:32N 35°22' E 139°51'0 0.0
2016-Aug-12 10:32N 35°22' E 139°51'0 0.0
2016-Aug-12 09:32N 35°22' E 139°51'0 0.0
2016-Aug-12 08:32N 35°22' E 139°51'0 0.0
2016-Aug-12 07:32N 35°22' E 139°51'0 0.0
2016-Aug-12 06:29N 35°22' E 139°51'0 0.0
2016-Aug-12 05:32N 35°22' E 139°51'0 0.0
2016-Aug-12 04:32N 35°22' E 139°51'0 0.0
2016-Aug-12 03:32N 35°22' E 139°51'0 0.0
2016-Aug-12 02:32N 35°22' E 139°51'0 0.0
2016-Aug-12 01:29N 35°22' E 139°51'0 0.0
2016-Aug-12 00:32N 35°22' E 139°51'0 0.0
2016-Aug-11 23:32N 35°22' E 139°51'0 0.0
2016-Aug-11 22:32N 35°22' E 139°51'0 0.0
2016-Aug-11 21:32N 35°22' E 139°51'0 0.0
2016-Aug-11 20:32N 35°22' E 139°51'0 0.0
2016-Aug-11 19:32N 35°22' E 139°51'0 0.0
2016-Aug-11 18:32N 35°22' E 139°51'0 0.0
2016-Aug-11 17:32N 35°22' E 139°51'0 0.0
2016-Aug-11 16:32N 35°22' E 139°51'0 0.0
2016-Aug-11 15:32N 35°22' E 139°51'0 0.0
2016-Aug-11 14:32N 35°22' E 139°51'0 0.0
2016-Aug-11 13:29N 35°22' E 139°51'0 0.0
2016-Aug-11 12:32N 35°22' E 139°51'0 0.0
2016-Aug-11 11:32N 35°22' E 139°51'0 0.0
2016-Aug-11 10:32N 35°22' E 139°51'0 0.0
2016-Aug-11 09:32N 35°22' E 139°51'0 0.0
2016-Aug-11 08:32N 35°22' E 139°51'0 0.0
2016-Aug-11 07:32N 35°22' E 139°51'0 0.0
2016-Aug-11 06:32N 35°22' E 139°51'0 0.0
2016-Aug-11 05:29N 35°22' E 139°51'0 0.0
2016-Aug-11 04:32N 35°22' E 139°51'0 0.0
2016-Aug-11 03:32N 35°22' E 139°51'0 0.0
2016-Aug-11 02:32N 35°22' E 139°51'0 0.0
2016-Aug-11 01:29N 35°22' E 139°51'0 0.0
2016-Aug-11 00:26N 35°22' E 139°51'0 0.0
2016-Aug-10 23:32N 35°22' E 139°51'0 0.0
2016-Aug-10 22:32N 35°22' E 139°51'0 0.0
2016-Aug-10 21:32N 35°22' E 139°51'0 0.0
2016-Aug-10 20:32N 35°22' E 139°51'0 0.0
2016-Aug-10 19:32N 35°22' E 139°51'0 0.0
2016-Aug-10 18:29N 35°22' E 139°51'0 0.0
2016-Aug-10 17:32N 35°22' E 139°51'0 0.0
2016-Aug-10 16:32N 35°22' E 139°51'0 0.0
2016-Aug-10 15:32N 35°22' E 139°51'0 0.0
2016-Aug-10 14:32N 35°22' E 139°51'0 0.0
2016-Aug-10 13:32N 35°22' E 139°51'0 0.0
2016-Aug-10 12:29N 35°22' E 139°51'0 0.0
2016-Aug-10 11:32N 35°22' E 139°51'0 0.0
2016-Aug-10 10:23N 35°22' E 139°51'0 0.0
2016-Aug-10 09:29N 35°22' E 139°51'0 0.0
2016-Aug-10 08:29N 35°22' E 139°51'0 0.0
2016-Aug-10 07:23N 35°22' E 139°51'0 0.0
2016-Aug-10 06:29N 35°22' E 139°51'0 0.0
2016-Aug-10 05:26N 35°22' E 139°51'0 0.0
2016-Aug-10 04:32N 35°22' E 139°51'0 0.0
2016-Aug-10 03:32N 35°22' E 139°51'0 0.0
2016-Aug-10 02:32N 35°22' E 139°51'0 0.0
2016-Aug-10 01:32N 35°22' E 139°51'0 0.0
2016-Aug-10 00:32N 35°22' E 139°51'0 0.0
2016-Aug-09 23:32N 35°22' E 139°51'0 0.0
2016-Aug-09 22:26N 35°22' E 139°51'0 0.0
2016-Aug-09 21:32N 35°22' E 139°51'0 0.0
2016-Aug-09 20:26N 35°22' E 139°51'0 0.0
2016-Aug-09 19:32N 35°22' E 139°51'0 0.0
2016-Aug-09 18:32N 35°22' E 139°51'0 0.0
2016-Aug-09 17:32N 35°22' E 139°51'0 0.0
2016-Aug-09 16:32N 35°22' E 139°51'0 0.0
2016-Aug-09 15:32N 35°22' E 139°51'0 0.0
2016-Aug-09 14:32N 35°22' E 139°51'0 0.0
2016-Aug-09 13:32N 35°22' E 139°51'0 0.0
2016-Aug-09 12:32N 35°22' E 139°51'0 0.0
2016-Aug-09 11:32N 35°22' E 139°51'0 0.0
2016-Aug-09 10:32N 35°22' E 139°51'0 0.0
2016-Aug-09 09:32N 35°22' E 139°51'0 0.0
2016-Aug-09 08:32N 35°22' E 139°51'0 0.0
2016-Aug-09 07:32N 35°22' E 139°51'0 0.0
2016-Aug-09 04:32N 35°22' E 139°51'0 0.0
2016-Aug-09 03:29N 35°22' E 139°51'0 0.0
2016-Aug-09 02:32N 35°22' E 139°51'0 0.0
2016-Aug-09 01:32N 35°22' E 139°51'0 0.0
2016-Aug-09 00:32N 35°22' E 139°51'0 0.0
2016-Aug-08 23:32N 35°22' E 139°51'0 0.0
2016-Aug-08 22:32N 35°22' E 139°51'0 0.0
2016-Aug-08 21:29N 35°22' E 139°51'0 0.0
2016-Aug-08 20:32N 35°22' E 139°51'0 0.0
2016-Aug-08 19:29N 35°22' E 139°51'0 0.0
2016-Aug-08 18:32N 35°22' E 139°51'0 0.0
2016-Aug-08 17:32N 35°22' E 139°51'0 0.0
2016-Aug-08 16:32N 35°22' E 139°51'0 0.0
2016-Aug-08 15:32N 35°22' E 139°51'0 0.0
2016-Aug-08 14:32N 35°22' E 139°51'0 0.0
2016-Aug-08 13:32N 35°22' E 139°51'0 0.0
2016-Aug-08 12:29N 35°22' E 139°51'0 0.0
2016-Aug-08 11:32N 35°22' E 139°51'0 0.0
2016-Aug-08 10:32N 35°22' E 139°51'0 0.0
2016-Aug-08 09:32N 35°22' E 139°51'0 0.0
2016-Aug-08 08:32N 35°22' E 139°51'0 0.0
2016-Aug-08 07:32N 35°22' E 139°51'0 0.0
2016-Aug-08 06:32N 35°22' E 139°51'0 0.0
2016-Aug-08 05:32N 35°22' E 139°51'0 0.0
2016-Aug-08 04:29N 35°22' E 139°51'0 0.0
2016-Aug-08 03:32N 35°22' E 139°51'0 0.0
2016-Aug-08 02:32N 35°22' E 139°51'0 0.0
2016-Aug-08 01:32N 35°22' E 139°51'0 0.0
2016-Aug-08 00:32N 35°22' E 139°51'0 0.0
2016-Aug-07 23:32N 35°22' E 139°51'0 0.0
2016-Aug-07 22:32N 35°22' E 139°51'0 0.0
2016-Aug-07 21:32N 35°22' E 139°51'0 0.0
2016-Aug-07 20:32N 35°22' E 139°51'0 0.0
2016-Aug-07 19:32N 35°22' E 139°51'0 0.0
2016-Aug-07 18:32N 35°22' E 139°51'0 0.0
2016-Aug-07 17:29N 35°22' E 139°51'0 0.0
2016-Aug-07 16:32N 35°22' E 139°51'0 0.0
2016-Aug-07 15:32N 35°22' E 139°51'0 0.0
2016-Aug-07 14:29N 35°22' E 139°51'0 0.0
2016-Aug-07 13:32N 35°22' E 139°51'  
Track history (hours):
 
Tides and Currents Weather Stations Pressure Air Temp Water Temp Dewpoint Dewpoint Depression Visibility Wind Speed Wind Dir Waves Ship Positions

Global Endeavor

Last reported at 2016-Aug-17 12:33 UTC. Time now 2016-Aug-26 13:45 UTC.
Position N 34°57' E 140°12'.
Warning: this ship's position is 9 days out of date.

Length 175 m; draft 7.8 m.

Type: Cargo ship. MMSI: 356619000.

Date/timePositionNaut miles runAvg speedWind from/ knotsBaromVisibWave heightAir tempDewpointWater temp
2016-Aug-17 12:33N 34°57' E 140°12'1211.3
2016-Aug-17 11:31N 34°51' E 139°60'1110.0
2016-Aug-17 10:27N 34°50' E 139°47'11 8.5
2016-Aug-17 09:10N 34°60' E 139°41'710.8
2016-Aug-17 08:32N 35°06' E 139°44'9 9.3
2016-Aug-17 07:33N 35°15' E 139°46'10 9.6
2016-Aug-17 06:33N 35°24' E 139°43'4 3.7
2016-Aug-17 05:33N 35°28' E 139°42'0 0.0
2016-Aug-17 04:30N 35°28' E 139°42'0 0.0
2016-Aug-17 03:33N 35°28' E 139°42'0 0.0
2016-Aug-17 02:33N 35°28' E 139°42'0 0.0
2016-Aug-17 01:33N 35°28' E 139°42'0 0.0
2016-Aug-17 00:33N 35°28' E 139°42'0 0.0
2016-Aug-16 23:33N 35°28' E 139°42'0 0.0
2016-Aug-16 22:33N 35°28' E 139°42'0 0.0
2016-Aug-16 21:33N 35°28' E 139°42'0 0.0
2016-Aug-16 20:33N 35°28' E 139°42'0 0.0
2016-Aug-16 19:33N 35°28' E 139°42'0 0.0
2016-Aug-16 18:33N 35°28' E 139°42'0 0.0
2016-Aug-16 17:33N 35°28' E 139°42'0 0.0
2016-Aug-16 16:33N 35°28' E 139°42'0 0.0
2016-Aug-16 15:33N 35°28' E 139°42'0 0.0
2016-Aug-16 14:33N 35°28' E 139°42'0 0.0
2016-Aug-16 13:33N 35°28' E 139°42'0 0.0
2016-Aug-16 12:30N 35°28' E 139°42'0 0.0
2016-Aug-16 11:33N 35°28' E 139°42'0 0.0
2016-Aug-16 10:33N 35°28' E 139°42'0 0.0
2016-Aug-16 09:33N 35°28' E 139°42'0 0.0
2016-Aug-16 08:33N 35°28' E 139°42'0 0.0
2016-Aug-16 07:33N 35°28' E 139°42'0 0.0
2016-Aug-16 04:33N 35°28' E 139°42'0 0.0
2016-Aug-16 03:27N 35°28' E 139°42'0 0.0
2016-Aug-16 02:33N 35°28' E 139°42'0 0.0
2016-Aug-16 01:30N 35°28' E 139°42'0 0.0
2016-Aug-16 00:33N 35°28' E 139°42'0 0.0
2016-Aug-15 23:33N 35°28' E 139°42'0 0.0
2016-Aug-15 22:33N 35°28' E 139°42'0 0.0
2016-Aug-15 21:33N 35°28' E 139°42'0 0.0
2016-Aug-15 20:33N 35°28' E 139°42'0 0.0
2016-Aug-15 19:33N 35°28' E 139°42'0 0.0
2016-Aug-15 18:33N 35°28' E 139°42'0 0.0
2016-Aug-15 17:33N 35°28' E 139°42'0 0.0
2016-Aug-15 16:33N 35°28' E 139°42'0 0.0
2016-Aug-15 15:33N 35°28' E 139°42'0 0.0
2016-Aug-15 14:33N 35°28' E 139°42'0 0.0
2016-Aug-15 13:33N 35°28' E 139°42'0 0.0
2016-Aug-15 12:33N 35°28' E 139°42'0 0.0
2016-Aug-15 11:33N 35°28' E 139°42'0 0.0
2016-Aug-15 10:33N 35°28' E 139°42'0 0.0
2016-Aug-15 09:30N 35°28' E 139°42'0 0.0
2016-Aug-15 08:33N 35°28' E 139°42'0 0.0
2016-Aug-15 07:33N 35°28' E 139°42'0 0.0
2016-Aug-15 06:33N 35°28' E 139°42'0 0.0
2016-Aug-15 04:33N 35°28' E 139°42'0 0.0
2016-Aug-15 03:30N 35°28' E 139°42'0 0.0
2016-Aug-15 02:33N 35°28' E 139°42'0 0.0
2016-Aug-15 01:33N 35°28' E 139°42'0 0.0
2016-Aug-15 00:33N 35°28' E 139°42'0 0.0
2016-Aug-14 23:33N 35°28' E 139°42'0 0.0
2016-Aug-14 22:33N 35°28' E 139°42'2 1.8
2016-Aug-14 21:33N 35°27' E 139°43'1 0.6
2016-Aug-14 20:32N 35°27' E 139°44'0 0.1
2016-Aug-14 19:32N 35°27' E 139°44'0 0.0
2016-Aug-14 18:32N 35°27' E 139°44'0 0.0
2016-Aug-14 17:32N 35°27' E 139°44'0 0.1
2016-Aug-14 16:32N 35°27' E 139°44'0 0.1
2016-Aug-14 15:32N 35°27' E 139°44'0 0.0
2016-Aug-14 14:32N 35°27' E 139°44'0 0.0
2016-Aug-14 13:32N 35°27' E 139°44'0 0.1
2016-Aug-14 12:32N 35°27' E 139°44'0 0.1
2016-Aug-14 11:32N 35°27' E 139°44'0 0.0
2016-Aug-14 10:32N 35°27' E 139°44'0 0.2
2016-Aug-14 09:32N 35°26' E 139°44'0 0.1
2016-Aug-14 08:32N 35°26' E 139°44'0 0.0
2016-Aug-14 07:29N 35°26' E 139°44'0 0.1
2016-Aug-14 06:32N 35°26' E 139°44'0 0.1
2016-Aug-14 04:32N 35°27' E 139°44'0 0.0
2016-Aug-14 03:32N 35°27' E 139°44'0 0.1
2016-Aug-14 02:32N 35°27' E 139°44'0 0.1
2016-Aug-14 01:32N 35°26' E 139°44'0 0.0
2016-Aug-14 00:32N 35°26' E 139°44'0 0.1
2016-Aug-13 23:32N 35°26' E 139°44'0 0.1
2016-Aug-13 22:32N 35°26' E 139°44'3 2.8
2016-Aug-13 21:34N 35°25' E 139°47'5 4.7
2016-Aug-13 20:32N 35°22' E 139°51'0 0.0
2016-Aug-13 19:32N 35°22' E 139°51'0 0.0
2016-Aug-13 18:32N 35°22' E 139°51'0 0.0
2016-Aug-13 17:32N 35°22' E 139°51'0 0.0
2016-Aug-13 16:32N 35°22' E 139°51'0 0.0
2016-Aug-13 15:32N 35°22' E 139°51'0 0.0
2016-Aug-13 14:29N 35°22' E 139°51'0 0.0
2016-Aug-13 13:32N 35°22' E 139°51'0 0.0
2016-Aug-13 12:32N 35°22' E 139°51'0 0.0
2016-Aug-13 11:32N 35°22' E 139°51'0 0.0
2016-Aug-13 10:32N 35°22' E 139°51'0 0.0
2016-Aug-13 09:32N 35°22' E 139°51'0 0.0
2016-Aug-13 08:32N 35°22' E 139°51'0 0.0
2016-Aug-13 07:29N 35°22' E 139°51'0 0.0
2016-Aug-13 06:32N 35°22' E 139°51'0 0.0
2016-Aug-13 05:29N 35°22' E 139°51'0 0.0
2016-Aug-13 04:32N 35°22' E 139°51'0 0.0
2016-Aug-13 03:32N 35°22' E 139°51'0 0.0
2016-Aug-13 02:32N 35°22' E 139°51'0 0.0
2016-Aug-13 01:32N 35°22' E 139°51'0 0.0
2016-Aug-13 00:32N 35°22' E 139°51'0 0.0
2016-Aug-12 23:32N 35°22' E 139°51'0 0.0
2016-Aug-12 22:32N 35°22' E 139°51'0 0.0
2016-Aug-12 21:29N 35°22' E 139°51'0 0.0
2016-Aug-12 20:32N 35°22' E 139°51'0 0.0
2016-Aug-12 19:32N 35°22' E 139°51'0 0.0
2016-Aug-12 18:32N 35°22' E 139°51'0 0.0
2016-Aug-12 17:32N 35°22' E 139°51'0 0.0
2016-Aug-12 16:32N 35°22' E 139°51'0 0.0
2016-Aug-12 15:32N 35°22' E 139°51'0 0.0
2016-Aug-12 14:32N 35°22' E 139°51'0 0.0
2016-Aug-12 13:32N 35°22' E 139°51'0 0.0
2016-Aug-12 12:32N 35°22' E 139°51'0 0.0
2016-Aug-12 11:32N 35°22' E 139°51'0 0.0
2016-Aug-12 10:32N 35°22' E 139°51'0 0.0
2016-Aug-12 09:32N 35°22' E 139°51'0 0.0
2016-Aug-12 08:32N 35°22' E 139°51'0 0.0
2016-Aug-12 07:32N 35°22' E 139°51'0 0.0
2016-Aug-12 06:29N 35°22' E 139°51'0 0.0
2016-Aug-12 05:32N 35°22' E 139°51'0 0.0
2016-Aug-12 04:32N 35°22' E 139°51'0 0.0
2016-Aug-12 03:32N 35°22' E 139°51'0 0.0
2016-Aug-12 02:32N 35°22' E 139°51'0 0.0
2016-Aug-12 01:29N 35°22' E 139°51'0 0.0
2016-Aug-12 00:32N 35°22' E 139°51'0 0.0
2016-Aug-11 23:32N 35°22' E 139°51'0 0.0
2016-Aug-11 22:32N 35°22' E 139°51'0 0.0
2016-Aug-11 21:32N 35°22' E 139°51'0 0.0
2016-Aug-11 20:32N 35°22' E 139°51'0 0.0
2016-Aug-11 19:32N 35°22' E 139°51'0 0.0
2016-Aug-11 18:32N 35°22' E 139°51'0 0.0
2016-Aug-11 17:32N 35°22' E 139°51'0 0.0
2016-Aug-11 16:32N 35°22' E 139°51'0 0.0
2016-Aug-11 15:32N 35°22' E 139°51'0 0.0
2016-Aug-11 14:32N 35°22' E 139°51'0 0.0
2016-Aug-11 13:29N 35°22' E 139°51'0 0.0
2016-Aug-11 12:32N 35°22' E 139°51'0 0.0
2016-Aug-11 11:32N 35°22' E 139°51'0 0.0
2016-Aug-11 10:32N 35°22' E 139°51'0 0.0
2016-Aug-11 09:32N 35°22' E 139°51'0 0.0
2016-Aug-11 08:32N 35°22' E 139°51'0 0.0
2016-Aug-11 07:32N 35°22' E 139°51'0 0.0
2016-Aug-11 06:32N 35°22' E 139°51'0 0.0
2016-Aug-11 05:29N 35°22' E 139°51'0 0.0
2016-Aug-11 04:32N 35°22' E 139°51'0 0.0
2016-Aug-11 03:32N 35°22' E 139°51'0 0.0
2016-Aug-11 02:32N 35°22' E 139°51'0 0.0
2016-Aug-11 01:29N 35°22' E 139°51'0 0.0
2016-Aug-11 00:26N 35°22' E 139°51'0 0.0
2016-Aug-10 23:32N 35°22' E 139°51'0 0.0
2016-Aug-10 22:32N 35°22' E 139°51'0 0.0
2016-Aug-10 21:32N 35°22' E 139°51'0 0.0
2016-Aug-10 20:32N 35°22' E 139°51'0 0.0
2016-Aug-10 19:32N 35°22' E 139°51'0 0.0
2016-Aug-10 18:29N 35°22' E 139°51'0 0.0
2016-Aug-10 17:32N 35°22' E 139°51'0 0.0
2016-Aug-10 16:32N 35°22' E 139°51'0 0.0
2016-Aug-10 15:32N 35°22' E 139°51'0 0.0
2016-Aug-10 14:32N 35°22' E 139°51'0 0.0
2016-Aug-10 13:32N 35°22' E 139°51'0 0.0
2016-Aug-10 12:29N 35°22' E 139°51'0 0.0
2016-Aug-10 11:32N 35°22' E 139°51'0 0.0
2016-Aug-10 10:23N 35°22' E 139°51'0 0.0
2016-Aug-10 09:29N 35°22' E 139°51'0 0.0
2016-Aug-10 08:29N 35°22' E 139°51'0 0.0
2016-Aug-10 07:23N 35°22' E 139°51'0 0.0
2016-Aug-10 06:29N 35°22' E 139°51'0 0.0
2016-Aug-10 05:26N 35°22' E 139°51'0 0.0
2016-Aug-10 04:32N 35°22' E 139°51'0 0.0
2016-Aug-10 03:32N 35°22' E 139°51'0 0.0
2016-Aug-10 02:32N 35°22' E 139°51'0 0.0
2016-Aug-10 01:32N 35°22' E 139°51'0 0.0
2016-Aug-10 00:32N 35°22' E 139°51'0 0.0
2016-Aug-09 23:32N 35°22' E 139°51'0 0.0
2016-Aug-09 22:26N 35°22' E 139°51'0 0.0
2016-Aug-09 21:32N 35°22' E 139°51'0 0.0
2016-Aug-09 20:26N 35°22' E 139°51'0 0.0
2016-Aug-09 19:32N 35°22' E 139°51'0 0.0
2016-Aug-09 18:32N 35°22' E 139°51'0 0.0
2016-Aug-09 17:32N 35°22' E 139°51'0 0.0
2016-Aug-09 16:32N 35°22' E 139°51'0 0.0
2016-Aug-09 15:32N 35°22' E 139°51'0 0.0
2016-Aug-09 14:32N 35°22' E 139°51'0 0.0
2016-Aug-09 13:32N 35°22' E 139°51'0 0.0
2016-Aug-09 12:32N 35°22' E 139°51'0 0.0
2016-Aug-09 11:32N 35°22' E 139°51'0 0.0
2016-Aug-09 10:32N 35°22' E 139°51'0 0.0
2016-Aug-09 09:32N 35°22' E 139°51'0 0.0
2016-Aug-09 08:32N 35°22' E 139°51'0 0.0
2016-Aug-09 07:32N 35°22' E 139°51'0 0.0
2016-Aug-09 04:32N 35°22' E 139°51'0 0.0
2016-Aug-09 03:29N 35°22' E 139°51'0 0.0
2016-Aug-09 02:32N 35°22' E 139°51'0 0.0
2016-Aug-09 01:32N 35°22' E 139°51'0 0.0
2016-Aug-09 00:32N 35°22' E 139°51'0 0.0
2016-Aug-08 23:32N 35°22' E 139°51'0 0.0
2016-Aug-08 22:32N 35°22' E 139°51'0 0.0
2016-Aug-08 21:29N 35°22' E 139°51'0 0.0
2016-Aug-08 20:32N 35°22' E 139°51'0 0.0
2016-Aug-08 19:29N 35°22' E 139°51'0 0.0
2016-Aug-08 18:32N 35°22' E 139°51'0 0.0
2016-Aug-08 17:32N 35°22' E 139°51'0 0.0
2016-Aug-08 16:32N 35°22' E 139°51'0 0.0
2016-Aug-08 15:32N 35°22' E 139°51'0 0.0
2016-Aug-08 14:32N 35°22' E 139°51'0 0.0
2016-Aug-08 13:32N 35°22' E 139°51'0 0.0
2016-Aug-08 12:29N 35°22' E 139°51'0 0.0
2016-Aug-08 11:32N 35°22' E 139°51'0 0.0
2016-Aug-08 10:32N 35°22' E 139°51'0 0.0
2016-Aug-08 09:32N 35°22' E 139°51'0 0.0
2016-Aug-08 08:32N 35°22' E 139°51'0 0.0
2016-Aug-08 07:32N 35°22' E 139°51'0 0.0
2016-Aug-08 06:32N 35°22' E 139°51'0 0.0
2016-Aug-08 05:32N 35°22' E 139°51'0 0.0
2016-Aug-08 04:29N 35°22' E 139°51'0 0.0
2016-Aug-08 03:32N 35°22' E 139°51'0 0.0
2016-Aug-08 02:32N 35°22' E 139°51'0 0.0
2016-Aug-08 01:32N 35°22' E 139°51'0 0.0
2016-Aug-08 00:32N 35°22' E 139°51'0 0.0
2016-Aug-07 23:32N 35°22' E 139°51'0 0.0
2016-Aug-07 22:32N 35°22' E 139°51'0 0.0
2016-Aug-07 21:32N 35°22' E 139°51'0 0.0
2016-Aug-07 20:32N 35°22' E 139°51'0 0.0
2016-Aug-07 19:32N 35°22' E 139°51'0 0.0
2016-Aug-07 18:32N 35°22' E 139°51'0 0.0
2016-Aug-07 17:29N 35°22' E 139°51'0 0.0
2016-Aug-07 16:32N 35°22' E 139°51'0 0.0
2016-Aug-07 15:32N 35°22' E 139°51'0 0.0
2016-Aug-07 14:29N 35°22' E 139°51'0 0.0
2016-Aug-07 13:32N 35°22' E 139°51'  

Dump ship's entire track history